Time;durP1;ratioP1;P1;durP2;ratioP2;P2;SDS_P1;SDS_P2;PMS_P1;PMS_P2;Temp;Humidity;BMP_temperature;BMP_pressure;BME280_temperature;BME280_humidity;BME280_pressure;Samples;Min_cycle;Max_cycle;Signal;HPM_P1;HPM_P2
2021/05/28 00:01:28;;;;;;;9.65;8.75;;;;;;;19.02;71.72;94187.27;830146;71;32866;-79
2021/05/28 00:16:12;;;;;;;9.75;8.85;;;;;;;18.98;71.33;94172.56;829691;71;32138;-78
2021/05/28 00:31:10;;;;;;;9.55;8.55;;;;;;;18.27;71.69;94149.70;834657;71;30813;-76
2021/05/28 00:46:10;;;;;;;9.23;8.25;;;;;;;17.26;75.20;94120.69;829850;71;31394;-79
2021/05/28 01:01:17;;;;;;;9.90;8.90;;;;;;;17.22;76.30;94121.16;828581;71;31735;-77
2021/05/28 01:16:13;;;;;;;11.30;10.20;;;;;;;17.66;76.21;94116.37;834608;71;31684;-77
2021/05/28 01:31:14;;;;;;;9.83;8.88;;;;;;;18.00;75.22;94127.69;828286;71;31735;-77
2021/05/28 01:46:14;;;;;;;9.03;8.13;;;;;;;18.19;74.09;94111.61;827857;71;31776;-77
2021/05/28 02:01:09;;;;;;;9.63;8.58;;;;;;;18.21;73.26;94094.20;828693;71;29742;-78
2021/05/28 02:16:14;;;;;;;11.10;8.93;;;;;;;18.13;73.09;94087.77;835222;71;31823;-77
2021/05/28 02:31:11;;;;;;;9.55;8.60;;;;;;;18.12;72.72;94068.95;829149;71;29254;-76
2021/05/28 02:46:14;;;;;;;9.13;8.23;;;;;;;17.77;73.72;94082.36;829709;71;31522;-78
2021/05/28 03:01:55;;;;;;;10.60;8.68;;;;;;;17.95;73.58;94103.28;828212;71;29818;-77
2021/05/28 03:16:14;;;;;;;9.18;8.38;;;;;;;18.30;72.92;94121.90;829053;71;31724;-77
2021/05/28 03:31:15;;;;;;;7.70;7.00;;;;;;;18.44;72.01;94114.05;828848;71;31829;-77
2021/05/28 03:46:19;;;;;;;8.50;7.70;;;;;;;18.61;72.27;94146.32;834621;71;31768;-77
2021/05/28 04:01:08;;;;;;;9.48;7.45;;;;;;;18.74;72.24;94152.28;828847;71;28692;-76
2021/05/28 04:16:16;;;;;;;8.20;7.40;;;;;;;19.73;71.56;94133.88;828136;71;31723;-76
2021/05/28 04:31:10;;;;;;;10.18;9.28;;;;;;;19.93;68.33;94124.70;828893;71;30767;-78
2021/05/28 04:46:16;;;;;;;10.88;9.65;;;;;;;18.72;71.16;94127.94;827472;71;32715;-76
2021/05/28 05:01:10;;;;;;;11.50;10.32;;;;;;;18.22;73.32;94135.57;835025;71;30362;-78
2021/05/28 05:16:15;;;;;;;11.38;10.20;;;;;;;18.67;73.83;94153.44;823531;71;32901;-77
2021/05/28 05:31:18;;;;;;;12.13;10.90;;;;;;;19.01;72.31;94173.74;827283;71;32724;-76
2021/05/28 05:46:08;;;;;;;8.70;7.90;;;;;;;20.46;68.67;94173.28;829045;71;29828;-77
2021/05/28 07:31:18;;;;;;;4.83;4.43;;;;;;;26.80;41.88;94176.91;828647;71;32744;-78
2021/05/28 07:46:08;;;;;;;6.90;6.30;;;;;;;;;;829429;71;30385;-76
2021/05/28 08:01:18;;;;;;;6.90;6.30;;;;;;;23.78;48.16;94198.05;828903;71;32686;-82
2021/05/28 08:16:09;;;;;;;6.70;6.10;;;;;;;22.56;51.84;94195.30;801762;74;30349;-81
2021/05/28 08:31:20;;;;;;;9.27;8.30;;;;;;;21.44;54.36;94256.22;834673;71;33089;-79
2021/05/28 08:46:15;;;;;;;17.47;15.90;;;;;;;19.58;54.54;94285.87;834453;71;32688;-79
2021/05/28 09:01:54;;;;;;;17.42;15.32;;;;;;;18.49;60.82;94327.66;828182;71;30268;-77
2021/05/28 09:16:14;;;;;;;14.65;13.32;;;;;;;17.75;65.01;94343.34;828396;71;30283;-79
2021/05/28 09:31:13;;;;;;;15.98;14.47;;;;;;;17.27;67.23;94366.20;828052;71;29309;-80
2021/05/28 09:46:14;;;;;;;16.70;14.05;;;;;;;16.99;69.78;94365.56;827415;71;32818;-77
2021/05/28 10:01:13;;;;;;;14.68;13.18;;;;;;;16.82;73.65;94358.58;833772;71;32610;-75
2021/05/28 10:16:15;;;;;;;12.98;11.68;;;;;;;16.69;73.20;94363.63;833994;71;32744;-77
2021/05/28 10:31:10;;;;;;;7.33;6.42;;;;;;;16.31;70.96;94355.38;828455;71;30337;-74
2021/05/28 10:46:12;;;;;;;10.65;7.55;;;;;;;16.15;73.76;94365.80;833679;71;30120;-78
2021/05/28 11:01:34;;;;;;;7.40;6.75;;;;;;;16.08;73.00;94368.22;833599;71;29477;-77
2021/05/28 11:16:10;;;;;;;6.95;6.35;;;;;;;16.27;73.63;94372.25;822296;71;30379;-79
2021/05/28 11:31:17;;;;;;;11.48;10.45;;;;;;;17.63;72.98;94374.66;827106;71;33210;-75
2021/05/28 11:46:21;;;;;;;16.77;15.23;;;;;;;17.00;69.48;94375.05;833521;71;33085;-78
2021/05/28 12:01:14;;;;;;;14.70;13.20;;;;;;;16.87;68.45;94393.91;810223;70;32988;-75
2021/05/28 12:16:21;;;;;;;12.90;11.70;;;;;;;16.82;68.45;94392.26;816955;71;32816;-76
2021/05/28 12:31:17;;;;;;;12.90;11.60;;;;;;;16.71;68.98;94401.72;828037;71;30269;-77
2021/05/28 12:46:16;;;;;;;13.65;12.35;;;;;;;16.67;69.40;94406.13;827976;71;29796;-76
2021/05/28 13:01:09;;;;;;;12.43;10.98;;;;;;;16.52;67.74;94392.94;833792;71;29221;-75
2021/05/28 13:16:08;;;;;;;12.88;11.75;;;;;;;16.61;65.14;94383.81;828227;71;29821;-77
2021/05/28 13:31:17;;;;;;;14.33;12.93;;;;;;;16.53;65.16;94395.27;827967;71;31847;-78
2021/05/28 13:46:14;;;;;;;14.30;13.00;;;;;;;16.46;65.99;94379.69;833864;71;31739;-74
2021/05/28 14:01:14;;;;;;;12.90;11.70;;;;;;;16.84;65.78;94374.71;827459;71;31782;-75
2021/05/28 14:16:19;;;;;;;12.88;11.55;;;;;;;17.56;64.22;94365.74;827138;71;31819;-76
2021/05/28 14:31:10;;;;;;;11.85;10.65;;;;;;;17.80;62.92;94360.37;827800;71;29760;-77
2021/05/28 14:46:08;;;;;;;11.90;10.03;;;;;;;18.57;61.54;94350.09;828200;71;28776;-77
2021/05/28 15:01:59;;;;;;;11.45;10.30;;;;;;;18.50;59.56;94369.06;827253;71;31882;-76
2021/05/28 15:16:11;;;;;;;11.80;10.72;;;;;;;18.25;59.26;94375.04;822409;71;29394;-77
2021/05/28 15:31:09;;;;;;;11.40;10.30;;;;;;;17.85;60.37;94385.16;827910;71;29264;-77
2021/05/28 15:46:11;;;;;;;12.10;10.85;;;;;;;17.62;61.23;94399.66;828065;71;30453;-75
2021/05/28 16:01:10;;;;;;;13.70;12.35;;;;;;;17.35;61.38;94417.02;824720;71;29327;-77
2021/05/28 16:16:12;;;;;;;14.78;13.38;;;;;;;17.21;61.19;94410.75;825648;71;31696;-77
2021/05/28 16:31:09;;;;;;;17.85;13.85;;;;;;;16.92;61.23;94430.27;828041;71;29727;-77
2021/05/28 16:46:17;;;;;;;15.03;13.53;;;;;;;17.23;62.50;94434.27;827553;71;31760;-77
2021/05/28 17:01:15;;;;;;;15.63;14.15;;;;;;;16.94;62.04;94439.98;822111;71;31863;-76
2021/05/28 17:16:12;;;;;;;18.05;16.15;;;;;;;16.63;62.47;94425.31;830353;70;29327;-78
2021/05/28 17:31:09;;;;;;;17.20;14.85;;;;;;;16.26;63.53;94431.05;834699;71;29255;-78
2021/05/28 17:46:08;;;;;;;15.60;14.05;;;;;;;15.87;64.74;94438.89;824442;70;28692;-78
2021/05/28 18:01:09;;;;;;;16.35;14.73;;;;;;;15.30;65.57;94415.78;828962;71;28701;-77
2021/05/28 18:16:08;;;;;;;16.95;15.25;;;;;;;15.12;66.41;94467.17;828012;71;29421;-76
2021/05/28 19:01:36;;;;;;;15.55;13.72;;;;;;;14.65;68.04;94481.67;836017;71;31622;-82
2021/05/28 19:16:52;;;;;;;15.13;13.58;;;;;;;14.62;68.26;94490.45;822214;71;31880;-81
2021/05/28 19:31:43;;;;;;;13.60;12.30;;;;;;;14.69;68.11;94491.29;827220;70;32280;-84
2021/05/28 19:46:46;;;;;;;12.65;11.45;;;;;;;14.57;68.18;94495.12;820461;71;31273;-85
2021/05/28 20:31:33;;;;;;;11.00;9.98;;;;;;;15.24;69.98;94488.42;824992;71;31767;-82
2021/05/28 20:46:36;;;;;;;10.93;9.93;;;;;;;15.65;68.33;94487.55;834151;71;31829;-81
2021/05/28 21:01:57;;;;;;;12.00;10.93;;;;;;;16.07;67.20;94497.67;817726;71;32159;-82
2021/05/28 21:16:16;;;;;;;12.03;10.80;;;;;;;16.29;66.22;94511.70;827988;71;31946;-81
2021/05/28 21:31:47;;;;;;;11.25;10.15;;;;;;;16.51;64.74;94510.60;833773;71;32364;-82
2021/05/28 21:46:42;;;;;;;11.10;10.10;;;;;;;16.63;64.54;94508.77;833857;71;32918;-82
2021/05/28 22:01:29;;;;;;;11.50;10.50;;;;;;;16.72;63.05;94508.69;821023;71;32715;-82
2021/05/28 22:16:22;;;;;;;10.15;9.30;;;;;;;16.67;63.17;94506.25;827769;71;32616;-80
2021/05/28 22:46:48;;;;;;;8.68;7.75;;;;;;;16.67;62.38;94530.09;808354;72;32076;-81
2021/05/28 23:16:17;;;;;;;7.10;6.50;;;;;;;16.53;62.10;94536.98;794497;74;32944;-81
2021/05/28 23:31:21;;;;;;;6.03;5.62;;;;;;;16.47;61.98;94526.36;834117;71;32696;-81
